sensor_id;sensor_type;location;lat;lon;timestamp;temperature;humidity
7934;DHT22;4012;48.896;9.192;2022-10-16T00:01:24;16.10;99.90
7934;DHT22;4012;48.896;9.192;2022-10-16T00:03:50;16.10;99.90
7934;DHT22;4012;48.896;9.192;2022-10-16T00:06:17;16.10;99.90
7934;DHT22;4012;48.896;9.192;2022-10-16T00:08:44;16.10;99.90
7934;DHT22;4012;48.896;9.192;2022-10-16T00:11:21;16.10;99.90
7934;DHT22;4012;48.896;9.192;2022-10-16T00:13:50;16.10;99.90
7934;DHT22;4012;48.896;9.192;2022-10-16T00:16:16;16.10;99.90
7934;DHT22;4012;48.896;9.192;2022-10-16T00:18:43;16.10;99.90
7934;DHT22;4012;48.896;9.192;2022-10-16T00:21:20;16.00;99.90
7934;DHT22;4012;48.896;9.192;2022-10-16T00:23:49;16.10;99.90
7934;DHT22;4012;48.896;9.192;2022-10-16T00:26:16;16.00;99.90
7934;DHT22;4012;48.896;9.192;2022-10-16T00:28:45;16.00;99.90
7934;DHT22;4012;48.896;9.192;2022-10-16T00:31:12;16.00;99.90
7934;DHT22;4012;48.896;9.192;2022-10-16T00:33:39;16.10;99.90
7934;DHT22;4012;48.896;9.192;2022-10-16T00:36:07;16.10;99.90
7934;DHT22;4012;48.896;9.192;2022-10-16T00:38:33;16.10;99.90
7934;DHT22;4012;48.896;9.192;2022-10-16T00:40:59;16.00;99.90
7934;DHT22;4012;48.896;9.192;2022-10-16T00:46:43;16.00;99.90
7934;DHT22;4012;48.896;9.192;2022-10-16T00:51:43;16.00;99.90
7934;DHT22;4012;48.896;9.192;2022-10-16T00:54:13;16.00;99.90
7934;DHT22;4012;48.896;9.192;2022-10-16T00:56:40;16.00;99.90
7934;DHT22;4012;48.896;9.192;2022-10-16T00:59:14;16.00;99.90
7934;DHT22;4012;48.896;9.192;2022-10-16T01:01:40;16.00;99.90
7934;DHT22;4012;48.896;9.192;2022-10-16T01:04:06;16.00;99.90
7934;DHT22;4012;48.896;9.192;2022-10-16T01:06:46;16.10;99.90
7934;DHT22;4012;48.896;9.192;2022-10-16T01:09:23;16.10;99.90
7934;DHT22;4012;48.896;9.192;2022-10-16T01:12:09;16.10;99.90
7934;DHT22;4012;48.896;9.192;2022-10-16T01:14:45;16.10;99.90
7934;DHT22;4012;48.896;9.192;2022-10-16T01:17:17;16.10;99.90
7934;DHT22;4012;48.896;9.192;2022-10-16T01:22:19;16.20;99.90
7934;DHT22;4012;48.896;9.192;2022-10-16T01:24:48;16.20;99.90
7934;DHT22;4012;48.896;9.192;2022-10-16T01:27:19;16.20;99.90
7934;DHT22;4012;48.896;9.192;2022-10-16T01:32:21;16.20;99.90
7934;DHT22;4012;48.896;9.192;2022-10-16T01:34:53;16.10;99.90
7934;DHT22;4012;48.896;9.192;2022-10-16T01:37:40;16.10;99.90
7934;DHT22;4012;48.896;9.192;2022-10-16T01:40:11;16.10;99.90
7934;DHT22;4012;48.896;9.192;2022-10-16T01:42:48;16.10;99.90
7934;DHT22;4012;48.896;9.192;2022-10-16T01:45:16;16.10;99.90
7934;DHT22;4012;48.896;9.192;2022-10-16T01:47:44;16.10;99.90
7934;DHT22;4012;48.896;9.192;2022-10-16T01:50:12;16.10;99.90
7934;DHT22;4012;48.896;9.192;2022-10-16T01:52:43;16.10;99.90
7934;DHT22;4012;48.896;9.192;2022-10-16T01:55:12;16.10;99.90
7934;DHT22;4012;48.896;9.192;2022-10-16T01:57:42;16.10;99.90
7934;DHT22;4012;48.896;9.192;2022-10-16T02:00:12;16.10;99.90
7934;DHT22;4012;48.896;9.192;2022-10-16T02:02:41;16.10;99.90
7934;DHT22;4012;48.896;9.192;2022-10-16T02:07:44;16.20;99.90
7934;DHT22;4012;48.896;9.192;2022-10-16T02:10:09;16.20;99.90
7934;DHT22;4012;48.896;9.192;2022-10-16T02:12:38;16.20;99.90
7934;DHT22;4012;48.896;9.192;2022-10-16T02:15:06;16.20;99.90
7934;DHT22;4012;48.896;9.192;2022-10-16T02:17:32;16.20;99.90
7934;DHT22;4012;48.896;9.192;2022-10-16T02:19:58;16.20;99.90
7934;DHT22;4012;48.896;9.192;2022-10-16T02:22:49;16.20;99.90
7934;DHT22;4012;48.896;9.192;2022-10-16T02:25:34;16.20;99.90
7934;DHT22;4012;48.896;9.192;2022-10-16T02:30:50;16.20;99.90
7934;DHT22;4012;48.896;9.192;2022-10-16T02:33:17;16.20;99.90
7934;DHT22;4012;48.896;9.192;2022-10-16T02:35:49;16.20;99.90
7934;DHT22;4012;48.896;9.192;2022-10-16T02:38:16;16.20;99.90
7934;DHT22;4012;48.896;9.192;2022-10-16T02:40:42;16.30;99.90
7934;DHT22;4012;48.896;9.192;2022-10-16T02:43:08;16.20;99.90
7934;DHT22;4012;48.896;9.192;2022-10-16T02:45:34;16.20;99.90
7934;DHT22;4012;48.896;9.192;2022-10-16T02:48:00;16.20;99.90
7934;DHT22;4012;48.896;9.192;2022-10-16T02:50:26;16.20;99.90
7934;DHT22;4012;48.896;9.192;2022-10-16T02:52:52;16.20;99.90
7934;DHT22;4012;48.896;9.192;2022-10-16T02:55:18;16.10;99.90
7934;DHT22;4012;48.896;9.192;2022-10-16T02:57:43;16.10;99.90
7934;DHT22;4012;48.896;9.192;2022-10-16T03:00:12;16.10;99.90
7934;DHT22;4012;48.896;9.192;2022-10-16T03:02:39;16.10;99.90
7934;DHT22;4012;48.896;9.192;2022-10-16T03:05:05;16.10;99.90
7934;DHT22;4012;48.896;9.192;2022-10-16T03:07:30;16.10;99.90
7934;DHT22;4012;48.896;9.192;2022-10-16T03:09:56;16.00;99.90
7934;DHT22;4012;48.896;9.192;2022-10-16T03:12:22;16.00;99.90
7934;DHT22;4012;48.896;9.192;2022-10-16T03:14:47;15.90;99.90
7934;DHT22;4012;48.896;9.192;2022-10-16T03:17:13;15.90;99.90
7934;DHT22;4012;48.896;9.192;2022-10-16T03:19:39;15.90;99.90
7934;DHT22;4012;48.896;9.192;2022-10-16T03:22:04;15.80;99.90
7934;DHT22;4012;48.896;9.192;2022-10-16T03:24:30;15.80;99.90
7934;DHT22;4012;48.896;9.192;2022-10-16T03:26:55;15.80;99.90
7934;DHT22;4012;48.896;9.192;2022-10-16T03:29:21;15.80;99.90
7934;DHT22;4012;48.896;9.192;2022-10-16T03:31:47;15.80;99.90
7934;DHT22;4012;48.896;9.192;2022-10-16T03:34:14;15.80;99.90
7934;DHT22;4012;48.896;9.192;2022-10-16T03:36:40;15.80;99.90
7934;DHT22;4012;48.896;9.192;2022-10-16T03:39:05;15.80;99.90
7934;DHT22;4012;48.896;9.192;2022-10-16T03:41:31;15.70;99.90
7934;DHT22;4012;48.896;9.192;2022-10-16T03:43:57;15.70;99.90
7934;DHT22;4012;48.896;9.192;2022-10-16T03:46:22;15.70;99.90
7934;DHT22;4012;48.896;9.192;2022-10-16T03:48:48;15.70;99.90
7934;DHT22;4012;48.896;9.192;2022-10-16T03:51:13;15.70;99.90
7934;DHT22;4012;48.896;9.192;2022-10-16T03:53:39;15.70;99.90
7934;DHT22;4012;48.896;9.192;2022-10-16T03:56:05;15.70;99.90
7934;DHT22;4012;48.896;9.192;2022-10-16T03:58:30;15.70;99.90
7934;DHT22;4012;48.896;9.192;2022-10-16T04:00:56;15.70;99.90
7934;DHT22;4012;48.896;9.192;2022-10-16T04:03:22;15.70;99.90
7934;DHT22;4012;48.896;9.192;2022-10-16T04:05:48;15.70;99.90
7934;DHT22;4012;48.896;9.192;2022-10-16T04:08:14;15.70;99.90
7934;DHT22;4012;48.896;9.192;2022-10-16T04:10:39;15.70;99.90
7934;DHT22;4012;48.896;9.192;2022-10-16T04:13:07;15.70;99.90
7934;DHT22;4012;48.896;9.192;2022-10-16T04:15:32;15.70;99.90
7934;DHT22;4012;48.896;9.192;2022-10-16T04:17:58;15.70;99.90
7934;DHT22;4012;48.896;9.192;2022-10-16T04:20:23;15.60;99.90
7934;DHT22;4012;48.896;9.192;2022-10-16T04:22:49;15.60;99.90
7934;DHT22;4012;48.896;9.192;2022-10-16T04:25:15;15.60;99.90
7934;DHT22;4012;48.896;9.192;2022-10-16T04:27:40;15.60;99.90
7934;DHT22;4012;48.896;9.192;2022-10-16T04:30:06;15.60;99.90
7934;DHT22;4012;48.896;9.192;2022-10-16T04:32:32;15.50;99.90
7934;DHT22;4012;48.896;9.192;2022-10-16T04:34:57;15.60;99.90
7934;DHT22;4012;48.896;9.192;2022-10-16T04:37:24;15.60;99.90
7934;DHT22;4012;48.896;9.192;2022-10-16T04:39:50;15.60;99.90
7934;DHT22;4012;48.896;9.192;2022-10-16T04:42:16;15.50;99.90
7934;DHT22;4012;48.896;9.192;2022-10-16T04:44:41;15.50;99.90
7934;DHT22;4012;48.896;9.192;2022-10-16T04:47:07;15.60;99.90
7934;DHT22;4012;48.896;9.192;2022-10-16T04:49:33;15.50;99.90
7934;DHT22;4012;48.896;9.192;2022-10-16T04:51:58;15.50;99.90
7934;DHT22;4012;48.896;9.192;2022-10-16T04:54:24;15.60;99.90
7934;DHT22;4012;48.896;9.192;2022-10-16T04:56:49;15.60;99.90
7934;DHT22;4012;48.896;9.192;2022-10-16T04:59:18;15.60;99.90
7934;DHT22;4012;48.896;9.192;2022-10-16T05:01:44;15.60;99.90
7934;DHT22;4012;48.896;9.192;2022-10-16T05:04:10;15.50;99.90
7934;DHT22;4012;48.896;9.192;2022-10-16T05:06:35;15.50;99.90
7934;DHT22;4012;48.896;9.192;2022-10-16T05:09:01;15.60;99.90
7934;DHT22;4012;48.896;9.192;2022-10-16T05:11:27;15.50;99.90
7934;DHT22;4012;48.896;9.192;2022-10-16T05:13:53;15.50;99.90
7934;DHT22;4012;48.896;9.192;2022-10-16T05:16:18;15.40;99.90
7934;DHT22;4012;48.896;9.192;2022-10-16T05:18:44;15.30;99.90
7934;DHT22;4012;48.896;9.192;2022-10-16T05:21:09;15.30;99.90
7934;DHT22;4012;48.896;9.192;2022-10-16T05:23:35;15.20;99.90
7934;DHT22;4012;48.896;9.192;2022-10-16T05:26:00;15.20;99.90
7934;DHT22;4012;48.896;9.192;2022-10-16T05:28:27;15.20;99.90
7934;DHT22;4012;48.896;9.192;2022-10-16T05:30:53;15.10;99.90
7934;DHT22;4012;48.896;9.192;2022-10-16T05:33:24;15.10;99.90
7934;DHT22;4012;48.896;9.192;2022-10-16T05:35:50;15.10;99.90
7934;DHT22;4012;48.896;9.192;2022-10-16T05:38:17;15.20;99.90
7934;DHT22;4012;48.896;9.192;2022-10-16T05:40:42;15.10;99.90
7934;DHT22;4012;48.896;9.192;2022-10-16T05:43:08;15.10;99.90
7934;DHT22;4012;48.896;9.192;2022-10-16T05:45:34;15.10;99.90
7934;DHT22;4012;48.896;9.192;2022-10-16T05:48:00;15.00;99.90
7934;DHT22;4012;48.896;9.192;2022-10-16T05:50:26;15.00;99.90
7934;DHT22;4012;48.896;9.192;2022-10-16T05:52:52;15.00;99.90
7934;DHT22;4012;48.896;9.192;2022-10-16T05:55:17;14.90;99.90
7934;DHT22;4012;48.896;9.192;2022-10-16T05:57:43;15.00;99.90
7934;DHT22;4012;48.896;9.192;2022-10-16T06:00:09;15.00;99.90
7934;DHT22;4012;48.896;9.192;2022-10-16T06:02:35;15.00;99.90
7934;DHT22;4012;48.896;9.192;2022-10-16T06:05:01;15.00;99.90
7934;DHT22;4012;48.896;9.192;2022-10-16T06:07:26;15.10;99.90
7934;DHT22;4012;48.896;9.192;2022-10-16T06:09:52;15.00;99.90
7934;DHT22;4012;48.896;9.192;2022-10-16T06:12:18;15.00;99.90
7934;DHT22;4012;48.896;9.192;2022-10-16T06:14:45;15.00;99.90
7934;DHT22;4012;48.896;9.192;2022-10-16T06:17:13;15.10;99.90
7934;DHT22;4012;48.896;9.192;2022-10-16T06:19:39;15.10;99.90
7934;DHT22;4012;48.896;9.192;2022-10-16T06:22:04;15.10;99.90
7934;DHT22;4012;48.896;9.192;2022-10-16T06:24:30;15.10;99.90
7934;DHT22;4012;48.896;9.192;2022-10-16T06:26:55;15.10;99.90
7934;DHT22;4012;48.896;9.192;2022-10-16T06:29:21;15.20;99.90
7934;DHT22;4012;48.896;9.192;2022-10-16T06:31:46;15.30;99.90
7934;DHT22;4012;48.896;9.192;2022-10-16T06:34:12;15.40;99.90
7934;DHT22;4012;48.896;9.192;2022-10-16T06:36:38;15.50;99.90
7934;DHT22;4012;48.896;9.192;2022-10-16T06:39:05;15.60;99.90
7934;DHT22;4012;48.896;9.192;2022-10-16T06:41:32;15.70;99.90
7934;DHT22;4012;48.896;9.192;2022-10-16T06:43:59;15.80;99.90
7934;DHT22;4012;48.896;9.192;2022-10-16T06:46:25;15.90;99.90
7934;DHT22;4012;48.896;9.192;2022-10-16T06:48:52;15.90;99.90
7934;DHT22;4012;48.896;9.192;2022-10-16T06:51:19;15.90;99.90
7934;DHT22;4012;48.896;9.192;2022-10-16T06:53:50;15.90;99.90
7934;DHT22;4012;48.896;9.192;2022-10-16T06:56:24;16.00;99.90
7934;DHT22;4012;48.896;9.192;2022-10-16T06:58:51;16.00;99.90
7934;DHT22;4012;48.896;9.192;2022-10-16T07:01:19;16.00;99.90
7934;DHT22;4012;48.896;9.192;2022-10-16T07:03:45;16.10;99.90
7934;DHT22;4012;48.896;9.192;2022-10-16T07:06:14;16.10;99.90
7934;DHT22;4012;48.896;9.192;2022-10-16T07:08:41;16.10;99.90
7934;DHT22;4012;48.896;9.192;2022-10-16T07:11:09;16.20;99.90
7934;DHT22;4012;48.896;9.192;2022-10-16T07:13:36;16.30;99.90
7934;DHT22;4012;48.896;9.192;2022-10-16T07:16:14;16.40;99.90
7934;DHT22;4012;48.896;9.192;2022-10-16T07:18:40;16.40;99.90
7934;DHT22;4012;48.896;9.192;2022-10-16T07:21:12;16.40;99.90
7934;DHT22;4012;48.896;9.192;2022-10-16T07:23:38;16.30;99.90
7934;DHT22;4012;48.896;9.192;2022-10-16T07:26:05;16.20;99.90
7934;DHT22;4012;48.896;9.192;2022-10-16T07:28:31;16.20;99.90
7934;DHT22;4012;48.896;9.192;2022-10-16T07:31:04;16.20;99.90
7934;DHT22;4012;48.896;9.192;2022-10-16T07:33:32;16.30;99.90
7934;DHT22;4012;48.896;9.192;2022-10-16T07:35:57;16.30;99.90
7934;DHT22;4012;48.896;9.192;2022-10-16T07:38:23;16.30;99.90
7934;DHT22;4012;48.896;9.192;2022-10-16T07:40:59;16.30;99.90
7934;DHT22;4012;48.896;9.192;2022-10-16T07:43:26;16.20;99.90
7934;DHT22;4012;48.896;9.192;2022-10-16T07:45:52;16.30;99.90
7934;DHT22;4012;48.896;9.192;2022-10-16T07:48:18;16.30;99.90
7934;DHT22;4012;48.896;9.192;2022-10-16T07:50:45;16.40;99.90
7934;DHT22;4012;48.896;9.192;2022-10-16T07:53:11;16.40;99.90
7934;DHT22;4012;48.896;9.192;2022-10-16T07:55:37;16.40;99.90
7934;DHT22;4012;48.896;9.192;2022-10-16T07:58:03;16.60;99.90
7934;DHT22;4012;48.896;9.192;2022-10-16T08:00:28;16.70;99.90
7934;DHT22;4012;48.896;9.192;2022-10-16T08:02:54;16.80;99.90
7934;DHT22;4012;48.896;9.192;2022-10-16T08:05:19;16.90;99.90
7934;DHT22;4012;48.896;9.192;2022-10-16T08:07:49;17.00;99.90
7934;DHT22;4012;48.896;9.192;2022-10-16T08:10:17;17.30;99.90
7934;DHT22;4012;48.896;9.192;2022-10-16T08:12:43;17.60;99.90
7934;DHT22;4012;48.896;9.192;2022-10-16T08:15:09;17.80;99.90
7934;DHT22;4012;48.896;9.192;2022-10-16T08:17:34;18.00;99.90
7934;DHT22;4012;48.896;9.192;2022-10-16T08:20:00;18.20;99.90
7934;DHT22;4012;48.896;9.192;2022-10-16T08:22:27;18.50;99.90
7934;DHT22;4012;48.896;9.192;2022-10-16T08:24:52;18.80;99.90
7934;DHT22;4012;48.896;9.192;2022-10-16T08:27:18;19.50;99.90
7934;DHT22;4012;48.896;9.192;2022-10-16T08:29:43;20.40;99.90
7934;DHT22;4012;48.896;9.192;2022-10-16T08:32:09;21.50;99.90
7934;DHT22;4012;48.896;9.192;2022-10-16T08:34:34;21.90;99.90
7934;DHT22;4012;48.896;9.192;2022-10-16T08:37:00;21.20;99.90
7934;DHT22;4012;48.896;9.192;2022-10-16T08:39:26;21.00;99.90
7934;DHT22;4012;48.896;9.192;2022-10-16T08:42:10;20.70;99.90
7934;DHT22;4012;48.896;9.192;2022-10-16T08:50:32;21.10;99.90
7934;DHT22;4012;48.896;9.192;2022-10-16T08:52:58;20.60;99.90
7934;DHT22;4012;48.896;9.192;2022-10-16T08:55:29;20.40;99.90
7934;DHT22;4012;48.896;9.192;2022-10-16T08:57:55;20.20;99.90
7934;DHT22;4012;48.896;9.192;2022-10-16T09:00:21;20.10;99.90
7934;DHT22;4012;48.896;9.192;2022-10-16T09:03:07;19.90;99.90
7934;DHT22;4012;48.896;9.192;2022-10-16T09:06:05;19.60;99.90
7934;DHT22;4012;48.896;9.192;2022-10-16T09:14:13;19.20;99.90
7934;DHT22;4012;48.896;9.192;2022-10-16T09:16:51;19.10;99.90
7934;DHT22;4012;48.896;9.192;2022-10-16T09:19:37;19.00;99.90
7934;DHT22;4012;48.896;9.192;2022-10-16T09:22:13;19.00;99.90
7934;DHT22;4012;48.896;9.192;2022-10-16T09:24:39;19.70;99.90
7934;DHT22;4012;48.896;9.192;2022-10-16T09:27:11;20.80;99.90
7934;DHT22;4012;48.896;9.192;2022-10-16T09:29:37;22.20;99.90
7934;DHT22;4012;48.896;9.192;2022-10-16T09:32:14;23.30;99.90
7934;DHT22;4012;48.896;9.192;2022-10-16T09:34:55;23.70;99.90
7934;DHT22;4012;48.896;9.192;2022-10-16T09:37:23;23.90;99.90
7934;DHT22;4012;48.896;9.192;2022-10-16T09:39:54;24.50;99.90
7934;DHT22;4012;48.896;9.192;2022-10-16T09:42:30;25.40;99.90
7934;DHT22;4012;48.896;9.192;2022-10-16T09:44:56;26.60;99.90
7934;DHT22;4012;48.896;9.192;2022-10-16T09:47:30;26.40;99.90
7934;DHT22;4012;48.896;9.192;2022-10-16T09:52:25;27.30;99.90
7934;DHT22;4012;48.896;9.192;2022-10-16T09:54:53;27.70;99.90
7934;DHT22;4012;48.896;9.192;2022-10-16T09:57:19;27.90;99.90
7934;DHT22;4012;48.896;9.192;2022-10-16T09:59:50;28.00;99.90
7934;DHT22;4012;48.896;9.192;2022-10-16T10:02:36;28.60;99.90
7934;DHT22;4012;48.896;9.192;2022-10-16T10:05:05;29.20;99.90
7934;DHT22;4012;48.896;9.192;2022-10-16T10:07:43;28.90;99.90
7934;DHT22;4012;48.896;9.192;2022-10-16T10:10:20;27.90;99.90
7934;DHT22;4012;48.896;9.192;2022-10-16T10:12:47;26.90;99.90
7934;DHT22;4012;48.896;9.192;2022-10-16T10:15:13;25.70;99.90
7934;DHT22;4012;48.896;9.192;2022-10-16T10:17:52;25.00;99.90
7934;DHT22;4012;48.896;9.192;2022-10-16T10:20:29;24.50;99.90
7934;DHT22;4012;48.896;9.192;2022-10-16T10:22:57;24.70;99.90
7934;DHT22;4012;48.896;9.192;2022-10-16T10:28:06;27.10;99.90
7934;DHT22;4012;48.896;9.192;2022-10-16T10:44:21;25.40;99.90
7934;DHT22;4012;48.896;9.192;2022-10-16T10:49:36;24.20;99.90
7934;DHT22;4012;48.896;9.192;2022-10-16T10:52:30;24.00;99.90
7934;DHT22;4012;48.896;9.192;2022-10-16T11:00:30;24.00;99.90
7934;DHT22;4012;48.896;9.192;2022-10-16T11:05:52;25.10;99.90
7934;DHT22;4012;48.896;9.192;2022-10-16T11:08:43;25.20;99.90
7934;DHT22;4012;48.896;9.192;2022-10-16T11:11:29;24.10;99.90
7934;DHT22;4012;48.896;9.192;2022-10-16T11:14:16;23.90;99.90
7934;DHT22;4012;48.896;9.192;2022-10-16T11:16:58;24.60;99.90
7934;DHT22;4012;48.896;9.192;2022-10-16T11:28:33;23.50;99.90
7934;DHT22;4012;48.896;9.192;2022-10-16T11:30:29;23.50;99.90
7934;DHT22;4012;48.896;9.192;2022-10-16T11:35:41;23.70;99.90
7934;DHT22;4012;48.896;9.192;2022-10-16T11:38:29;23.60;99.90
7934;DHT22;4012;48.896;9.192;2022-10-16T11:41:00;23.10;99.90
7934;DHT22;4012;48.896;9.192;2022-10-16T11:43:41;23.50;99.90
7934;DHT22;4012;48.896;9.192;2022-10-16T11:46:13;23.70;99.90
7934;DHT22;4012;48.896;9.192;2022-10-16T11:48:45;23.70;99.90
7934;DHT22;4012;48.896;9.192;2022-10-16T11:56:40;23.70;99.90
7934;DHT22;4012;48.896;9.192;2022-10-16T11:59:21;23.70;99.90
7934;DHT22;4012;48.896;9.192;2022-10-16T12:05:11;23.70;99.90
7934;DHT22;4012;48.896;9.192;2022-10-16T12:07:41;23.70;99.90
7934;DHT22;4012;48.896;9.192;2022-10-16T12:10:27;23.50;99.90
7934;DHT22;4012;48.896;9.192;2022-10-16T12:12:53;24.10;99.90
7934;DHT22;4012;48.896;9.192;2022-10-16T12:15:22;23.90;99.90
7934;DHT22;4012;48.896;9.192;2022-10-16T12:17:48;23.70;99.90
7934;DHT22;4012;48.896;9.192;2022-10-16T12:22:52;23.10;99.90
7934;DHT22;4012;48.896;9.192;2022-10-16T12:25:33;23.00;99.90
7934;DHT22;4012;48.896;9.192;2022-10-16T12:28:21;23.10;99.90
7934;DHT22;4012;48.896;9.192;2022-10-16T12:31:02;23.20;99.90
7934;DHT22;4012;48.896;9.192;2022-10-16T12:33:30;23.20;99.90
7934;DHT22;4012;48.896;9.192;2022-10-16T12:36:03;23.20;99.90
7934;DHT22;4012;48.896;9.192;2022-10-16T12:41:08;23.00;99.90
7934;DHT22;4012;48.896;9.192;2022-10-16T12:43:41;23.10;99.90
7934;DHT22;4012;48.896;9.192;2022-10-16T12:48:37;23.00;99.90
7934;DHT22;4012;48.896;9.192;2022-10-16T12:53:36;22.80;99.90
7934;DHT22;4012;48.896;9.192;2022-10-16T12:56:22;22.60;99.90
7934;DHT22;4012;48.896;9.192;2022-10-16T12:58:51;22.80;99.90
7934;DHT22;4012;48.896;9.192;2022-10-16T13:04:43;22.80;99.90
7934;DHT22;4012;48.896;9.192;2022-10-16T13:12:41;22.70;99.90
7934;DHT22;4012;48.896;9.192;2022-10-16T13:18:13;22.80;99.90
7934;DHT22;4012;48.896;9.192;2022-10-16T13:20:54;23.00;99.90
7934;DHT22;4012;48.896;9.192;2022-10-16T13:23:33;23.20;99.90
7934;DHT22;4012;48.896;9.192;2022-10-16T13:28:39;23.00;99.90
7934;DHT22;4012;48.896;9.192;2022-10-16T13:31:05;23.00;99.90
7934;DHT22;4012;48.896;9.192;2022-10-16T13:33:38;23.10;99.90
7934;DHT22;4012;48.896;9.192;2022-10-16T13:36:05;23.00;99.90
7934;DHT22;4012;48.896;9.192;2022-10-16T13:38:35;22.90;99.90
7934;DHT22;4012;48.896;9.192;2022-10-16T13:41:11;23.00;99.90
7934;DHT22;4012;48.896;9.192;2022-10-16T13:43:49;23.00;99.90
7934;DHT22;4012;48.896;9.192;2022-10-16T13:46:20;23.10;99.90
7934;DHT22;4012;48.896;9.192;2022-10-16T13:49:00;23.00;99.90
7934;DHT22;4012;48.896;9.192;2022-10-16T13:51:27;22.90;99.90
7934;DHT22;4012;48.896;9.192;2022-10-16T13:53:55;22.90;99.90
7934;DHT22;4012;48.896;9.192;2022-10-16T13:56:31;22.80;99.90
7934;DHT22;4012;48.896;9.192;2022-10-16T13:59:06;22.80;99.90
7934;DHT22;4012;48.896;9.192;2022-10-16T14:01:41;22.80;99.90
7934;DHT22;4012;48.896;9.192;2022-10-16T14:04:09;22.80;99.90
7934;DHT22;4012;48.896;9.192;2022-10-16T14:06:39;22.80;99.90
7934;DHT22;4012;48.896;9.192;2022-10-16T14:09:16;22.80;99.90
7934;DHT22;4012;48.896;9.192;2022-10-16T14:11:50;22.70;99.90
7934;DHT22;4012;48.896;9.192;2022-10-16T14:14:18;22.60;99.90
7934;DHT22;4012;48.896;9.192;2022-10-16T14:16:47;22.40;99.90
7934;DHT22;4012;48.896;9.192;2022-10-16T14:19:20;22.30;99.90
7934;DHT22;4012;48.896;9.192;2022-10-16T14:21:48;22.30;99.90
7934;DHT22;4012;48.896;9.192;2022-10-16T14:26:48;22.20;99.90
7934;DHT22;4012;48.896;9.192;2022-10-16T14:29:18;22.20;99.90
7934;DHT22;4012;48.896;9.192;2022-10-16T14:32:02;22.20;99.90
7934;DHT22;4012;48.896;9.192;2022-10-16T14:34:29;22.20;99.90
7934;DHT22;4012;48.896;9.192;2022-10-16T14:36:56;22.20;99.90
7934;DHT22;4012;48.896;9.192;2022-10-16T14:39:23;22.20;99.90
7934;DHT22;4012;48.896;9.192;2022-10-16T14:41:51;22.30;99.90
7934;DHT22;4012;48.896;9.192;2022-10-16T14:44:18;22.40;99.90
7934;DHT22;4012;48.896;9.192;2022-10-16T14:46:45;22.40;99.90
7934;DHT22;4012;48.896;9.192;2022-10-16T14:51:38;22.40;99.90
7934;DHT22;4012;48.896;9.192;2022-10-16T14:54:04;22.30;99.90
7934;DHT22;4012;48.896;9.192;2022-10-16T14:56:34;22.40;99.90
7934;DHT22;4012;48.896;9.192;2022-10-16T14:59:08;22.40;99.90
7934;DHT22;4012;48.896;9.192;2022-10-16T15:01:38;22.30;99.90
7934;DHT22;4012;48.896;9.192;2022-10-16T15:04:03;22.30;99.90
7934;DHT22;4012;48.896;9.192;2022-10-16T15:06:29;22.20;99.90
7934;DHT22;4012;48.896;9.192;2022-10-16T15:08:55;22.20;99.90
7934;DHT22;4012;48.896;9.192;2022-10-16T15:11:20;22.20;99.90
7934;DHT22;4012;48.896;9.192;2022-10-16T15:13:46;22.20;99.90
7934;DHT22;4012;48.896;9.192;2022-10-16T15:16:14;22.10;99.90
7934;DHT22;4012;48.896;9.192;2022-10-16T15:18:40;22.20;99.90
7934;DHT22;4012;48.896;9.192;2022-10-16T15:21:06;22.10;99.90
7934;DHT22;4012;48.896;9.192;2022-10-16T15:23:31;22.10;99.90
7934;DHT22;4012;48.896;9.192;2022-10-16T15:25:57;22.10;99.90
7934;DHT22;4012;48.896;9.192;2022-10-16T15:28:24;22.00;99.90
7934;DHT22;4012;48.896;9.192;2022-10-16T15:30:52;21.90;99.90
7934;DHT22;4012;48.896;9.192;2022-10-16T15:33:20;21.90;99.90
7934;DHT22;4012;48.896;9.192;2022-10-16T15:35:49;21.80;99.90
7934;DHT22;4012;48.896;9.192;2022-10-16T15:38:17;21.70;99.90
7934;DHT22;4012;48.896;9.192;2022-10-16T15:40:43;21.70;99.90
7934;DHT22;4012;48.896;9.192;2022-10-16T15:43:08;21.60;99.90
7934;DHT22;4012;48.896;9.192;2022-10-16T15:45:34;21.60;99.90
7934;DHT22;4012;48.896;9.192;2022-10-16T15:48:00;21.70;99.90
7934;DHT22;4012;48.896;9.192;2022-10-16T15:50:26;21.70;99.90
7934;DHT22;4012;48.896;9.192;2022-10-16T15:52:52;21.70;99.90
7934;DHT22;4012;48.896;9.192;2022-10-16T15:55:17;21.70;99.90
7934;DHT22;4012;48.896;9.192;2022-10-16T15:57:44;21.60;99.90
7934;DHT22;4012;48.896;9.192;2022-10-16T16:00:17;21.60;99.90
7934;DHT22;4012;48.896;9.192;2022-10-16T16:02:44;21.60;99.90
7934;DHT22;4012;48.896;9.192;2022-10-16T16:05:14;21.60;99.90
7934;DHT22;4012;48.896;9.192;2022-10-16T16:07:40;21.50;99.90
7934;DHT22;4012;48.896;9.192;2022-10-16T16:10:08;21.50;99.90
7934;DHT22;4012;48.896;9.192;2022-10-16T16:12:34;21.50;99.90
7934;DHT22;4012;48.896;9.192;2022-10-16T16:15:00;21.50;99.90
7934;DHT22;4012;48.896;9.192;2022-10-16T16:17:26;21.50;99.90
7934;DHT22;4012;48.896;9.192;2022-10-16T16:19:51;21.50;99.90
7934;DHT22;4012;48.896;9.192;2022-10-16T16:22:17;21.40;99.90
7934;DHT22;4012;48.896;9.192;2022-10-16T16:24:43;21.30;99.90
7934;DHT22;4012;48.896;9.192;2022-10-16T16:27:09;21.30;99.90
7934;DHT22;4012;48.896;9.192;2022-10-16T16:29:34;21.20;99.90
7934;DHT22;4012;48.896;9.192;2022-10-16T16:32:00;21.10;99.90
7934;DHT22;4012;48.896;9.192;2022-10-16T16:34:27;21.10;99.90
7934;DHT22;4012;48.896;9.192;2022-10-16T16:36:54;21.00;99.90
7934;DHT22;4012;48.896;9.192;2022-10-16T16:39:20;21.00;99.90
7934;DHT22;4012;48.896;9.192;2022-10-16T16:41:46;20.90;99.90
7934;DHT22;4012;48.896;9.192;2022-10-16T16:44:12;20.90;99.90
7934;DHT22;4012;48.896;9.192;2022-10-16T16:46:38;20.80;99.90
7934;DHT22;4012;48.896;9.192;2022-10-16T16:49:10;20.70;99.90
7934;DHT22;4012;48.896;9.192;2022-10-16T16:51:37;20.70;99.90
7934;DHT22;4012;48.896;9.192;2022-10-16T16:54:03;20.70;99.90
7934;DHT22;4012;48.896;9.192;2022-10-16T16:56:29;20.60;99.90
7934;DHT22;4012;48.896;9.192;2022-10-16T16:58:56;20.60;99.90
7934;DHT22;4012;48.896;9.192;2022-10-16T17:01:23;20.60;99.90
7934;DHT22;4012;48.896;9.192;2022-10-16T17:03:51;20.50;99.90
7934;DHT22;4012;48.896;9.192;2022-10-16T17:06:19;20.50;99.90
7934;DHT22;4012;48.896;9.192;2022-10-16T17:08:45;20.40;99.90
7934;DHT22;4012;48.896;9.192;2022-10-16T17:11:15;20.40;99.90
7934;DHT22;4012;48.896;9.192;2022-10-16T17:13:41;20.30;99.90
7934;DHT22;4012;48.896;9.192;2022-10-16T17:16:07;20.30;99.90
7934;DHT22;4012;48.896;9.192;2022-10-16T17:18:34;20.20;99.90
7934;DHT22;4012;48.896;9.192;2022-10-16T17:21:01;20.20;99.90
7934;DHT22;4012;48.896;9.192;2022-10-16T17:23:27;20.10;99.90
7934;DHT22;4012;48.896;9.192;2022-10-16T17:25:53;20.10;99.90
7934;DHT22;4012;48.896;9.192;2022-10-16T17:28:19;20.10;99.90
7934;DHT22;4012;48.896;9.192;2022-10-16T17:30:44;20.00;99.90
7934;DHT22;4012;48.896;9.192;2022-10-16T17:33:11;19.80;99.90
7934;DHT22;4012;48.896;9.192;2022-10-16T17:35:39;19.80;99.90
7934;DHT22;4012;48.896;9.192;2022-10-16T17:38:05;19.70;99.90
7934;DHT22;4012;48.896;9.192;2022-10-16T17:40:31;19.60;99.90
7934;DHT22;4012;48.896;9.192;2022-10-16T17:42:57;19.60;99.90
7934;DHT22;4012;48.896;9.192;2022-10-16T17:45:22;19.50;99.90
7934;DHT22;4012;48.896;9.192;2022-10-16T17:47:48;19.50;99.90
7934;DHT22;4012;48.896;9.192;2022-10-16T17:50:14;19.50;99.90
7934;DHT22;4012;48.896;9.192;2022-10-16T17:52:39;19.50;99.90
7934;DHT22;4012;48.896;9.192;2022-10-16T17:55:06;19.50;99.90
7934;DHT22;4012;48.896;9.192;2022-10-16T17:57:31;19.50;99.90
7934;DHT22;4012;48.896;9.192;2022-10-16T17:59:57;19.50;99.90